createdAt,value
2023-03-20T00:00:08.014Z,9.42
2023-03-20T00:05:12.147Z,9.38
2023-03-20T00:10:16.306Z,9.31
2023-03-20T00:15:20.481Z,9.28
2023-03-20T00:20:24.625Z,9.25
2023-03-20T00:25:28.786Z,9.22
2023-03-20T00:30:32.961Z,9.10
2023-03-20T00:35:37.469Z,9.10
2023-03-20T00:40:41.302Z,9.00
2023-03-20T00:45:45.420Z,8.93
2023-03-20T00:50:49.637Z,8.89
2023-03-20T00:55:53.782Z,8.87
2023-03-20T01:00:57.970Z,8.81
2023-03-20T01:06:02.098Z,8.79
2023-03-20T01:11:06.233Z,8.78
2023-03-20T01:16:10.437Z,8.74
2023-03-20T01:21:12.677Z,8.73
2023-03-20T01:26:16.845Z,8.63
2023-03-20T01:31:19.155Z,8.57
2023-03-20T01:36:23.333Z,8.51
2023-03-20T01:41:27.440Z,8.42
2023-03-20T01:46:31.746Z,8.34
2023-03-20T01:51:35.774Z,8.33
2023-03-20T01:56:39.893Z,8.28
2023-03-20T02:01:44.087Z,8.24
2023-03-20T02:06:48.246Z,8.22
2023-03-20T02:11:52.431Z,8.18
2023-03-20T02:16:56.647Z,8.09
2023-03-20T02:22:00.766Z,7.95
2023-03-20T02:27:04.900Z,7.84
2023-03-20T02:32:09.091Z,7.81
2023-03-20T02:37:13.207Z,7.80
2023-03-20T02:42:17.376Z,7.83
2023-03-20T02:47:21.562Z,7.78
2023-03-20T02:52:25.708Z,7.75
2023-03-20T02:57:29.874Z,7.72
2023-03-20T03:02:34.040Z,7.78
2023-03-20T03:07:38.184Z,7.78
2023-03-20T03:12:42.346Z,7.74
2023-03-20T03:17:44.628Z,7.73
2023-03-20T03:22:46.897Z,7.72
2023-03-20T03:27:49.149Z,7.71
2023-03-20T03:32:53.347Z,7.68
2023-03-20T03:37:57.478Z,7.58
2023-03-20T03:43:01.723Z,7.48
2023-03-20T03:48:05.842Z,7.39
2023-03-20T03:53:09.970Z,7.30
2023-03-20T03:58:14.162Z,7.21
2023-03-20T04:03:18.305Z,7.18
2023-03-20T04:08:22.475Z,7.16
2023-03-20T04:13:26.645Z,7.13
2023-03-20T04:18:30.816Z,7.17
2023-03-20T04:23:34.932Z,7.22
2023-03-20T04:33:43.298Z,7.24
2023-03-20T04:38:47.434Z,7.25
2023-03-20T04:43:51.596Z,7.25
2023-03-20T04:48:55.788Z,7.26
2023-03-20T04:53:59.956Z,7.27
2023-03-20T04:59:04.086Z,7.27
2023-03-20T05:04:08.314Z,7.21
2023-03-20T05:09:12.408Z,7.17
2023-03-20T05:14:16.606Z,7.11
2023-03-20T05:19:18.854Z,7.05
2023-03-20T05:24:22.988Z,7.02
2023-03-20T05:29:25.332Z,6.98
2023-03-20T05:34:29.477Z,6.96
2023-03-20T05:39:33.628Z,6.94
2023-03-20T05:44:37.772Z,6.90
2023-03-20T05:49:41.940Z,6.87
2023-03-20T05:54:46.143Z,6.87
2023-03-20T05:59:50.264Z,6.86
2023-03-20T06:04:54.403Z,6.85
2023-03-20T06:09:58.585Z,6.83
2023-03-20T06:15:02.752Z,6.85
2023-03-20T06:20:06.927Z,6.88
2023-03-20T06:25:11.050Z,6.90
2023-03-20T06:30:15.241Z,6.95
2023-03-20T06:35:19.429Z,6.97
2023-03-20T06:40:23.553Z,6.99
2023-03-20T06:45:27.719Z,6.98
2023-03-20T06:50:31.904Z,7.00
2023-03-20T06:55:36.366Z,7.02
2023-03-20T07:00:40.194Z,7.06
2023-03-20T07:05:44.363Z,7.12
2023-03-20T07:10:48.542Z,7.17
2023-03-20T07:16:03.728Z,7.29
2023-03-20T07:20:55.022Z,7.38
2023-03-20T07:25:57.243Z,7.43
2023-03-20T07:31:01.430Z,7.52
2023-03-20T07:36:05.614Z,7.59
2023-03-20T07:41:09.717Z,7.68
2023-03-20T07:46:14.015Z,7.83
2023-03-20T07:51:18.052Z,8.01
2023-03-20T07:56:22.205Z,8.13
2023-03-20T08:01:26.354Z,8.21
2023-03-20T08:06:30.549Z,8.35
2023-03-20T08:11:34.986Z,8.39
2023-03-20T08:16:38.887Z,8.48
2023-03-20T08:21:43.068Z,8.45
2023-03-20T08:26:47.178Z,8.49
2023-03-20T08:31:51.355Z,8.57
2023-03-20T08:36:55.528Z,8.76
2023-03-20T08:42:00.995Z,8.92
2023-03-20T08:47:03.808Z,8.99
2023-03-20T08:52:07.972Z,9.09
2023-03-20T08:57:12.155Z,9.06
2023-03-20T09:02:16.464Z,9.06
2023-03-20T09:07:20.471Z,9.18
2023-03-20T09:12:22.746Z,9.17
2023-03-20T09:17:26.892Z,9.16
2023-03-20T09:22:31.100Z,9.04
2023-03-20T09:27:35.460Z,9.07
2023-03-20T09:32:37.519Z,9.12
2023-03-20T09:37:41.653Z,9.03
2023-03-20T09:42:45.807Z,9.03
2023-03-20T09:47:49.964Z,9.01
2023-03-20T09:52:54.176Z,8.96
2023-03-20T09:57:58.330Z,9.02
2023-03-20T10:03:02.482Z,9.14
2023-03-20T10:08:06.847Z,9.12
2023-03-20T10:13:10.821Z,9.14
2023-03-20T10:18:14.982Z,9.09
2023-03-20T10:23:19.122Z,9.19
2023-03-20T10:28:23.284Z,9.15
2023-03-20T10:33:27.432Z,9.20
2023-03-20T10:38:31.569Z,9.16
2023-03-20T10:43:38.827Z,9.30
2023-03-20T10:48:39.938Z,9.48
2023-03-20T10:53:44.093Z,9.51
2023-03-20T10:58:48.258Z,9.47
2023-03-20T11:03:52.396Z,9.53
2023-03-20T11:08:58.566Z,9.67
2023-03-20T11:14:00.729Z,9.70
2023-03-20T11:19:05.519Z,9.83
2023-03-20T11:24:07.144Z,9.83
2023-03-20T11:29:11.317Z,9.83
2023-03-20T11:34:15.579Z,9.88
2023-03-20T11:39:19.661Z,9.91
2023-03-20T11:44:23.788Z,9.96
2023-03-20T11:49:28.015Z,10.15
2023-03-20T11:54:32.136Z,10.08
2023-03-20T11:59:36.304Z,9.93
2023-03-20T12:09:44.619Z,9.75
2023-03-20T12:14:48.772Z,9.75
2023-03-20T12:19:52.938Z,9.82
2023-03-20T12:24:57.099Z,9.63
2023-03-20T12:30:01.236Z,9.69
2023-03-20T12:35:05.421Z,9.81
2023-03-20T12:40:09.724Z,9.56
2023-03-20T12:45:13.777Z,9.67
2023-03-20T12:50:19.927Z,9.63
2023-03-20T12:55:22.053Z,9.45
2023-03-20T13:00:26.208Z,9.42
2023-03-20T13:05:30.383Z,9.08
2023-03-20T13:10:32.665Z,9.17
2023-03-20T13:15:36.822Z,9.24
2023-03-20T13:20:39.112Z,9.33
2023-03-20T13:25:43.260Z,9.20
2023-03-20T13:30:47.396Z,9.13
2023-03-20T13:35:51.616Z,9.01
2023-03-20T13:40:53.864Z,9.03
2023-03-20T13:45:57.989Z,9.03
2023-03-20T13:51:02.342Z,9.12
2023-03-20T13:56:06.321Z,9.11
2023-03-20T14:01:10.524Z,9.23
2023-03-20T14:06:14.710Z,9.17
2023-03-20T14:11:18.808Z,9.00
2023-03-20T14:16:22.992Z,8.95
2023-03-20T14:21:27.136Z,8.97
2023-03-20T14:26:31.303Z,8.89
2023-03-20T14:31:35.468Z,9.10
2023-03-20T14:36:39.601Z,9.08
2023-03-20T14:41:43.809Z,9.02
2023-03-20T14:46:47.947Z,8.95
2023-03-20T14:51:52.127Z,8.92
2023-03-20T14:56:56.267Z,9.14
2023-03-20T15:02:00.472Z,9.18
2023-03-20T15:07:04.573Z,9.30
2023-03-20T15:12:08.798Z,9.34
2023-03-20T15:17:12.919Z,9.32
2023-03-20T15:22:17.124Z,9.30
2023-03-20T15:27:19.334Z,9.14
2023-03-20T15:32:23.501Z,9.10
2023-03-20T15:37:27.670Z,9.05
2023-03-20T15:42:29.933Z,9.01
2023-03-20T15:47:36.111Z,8.98
2023-03-20T15:52:38.261Z,8.92
2023-03-20T15:57:42.403Z,8.97
2023-03-20T16:02:48.359Z,8.98
2023-03-20T16:07:50.752Z,9.00
2023-03-20T16:12:54.892Z,8.97
2023-03-20T16:18:00.700Z,8.96
2023-03-20T16:23:03.263Z,8.96
2023-03-20T16:28:07.476Z,8.94
2023-03-20T16:33:11.582Z,8.91
2023-03-20T16:38:15.722Z,8.93
2023-03-20T16:43:19.867Z,8.91
2023-03-20T16:48:24.047Z,8.87
2023-03-20T16:53:28.174Z,8.84
2023-03-20T16:58:32.364Z,8.82
2023-03-20T17:03:36.535Z,8.74
2023-03-20T17:08:40.733Z,8.70
2023-03-20T17:13:44.872Z,8.67
2023-03-20T17:18:49.006Z,8.65
2023-03-20T17:23:53.183Z,8.59
2023-03-20T17:28:55.452Z,8.57
2023-03-20T17:33:59.619Z,8.55
2023-03-20T17:39:03.776Z,8.53
2023-03-20T17:44:08.024Z,8.50
2023-03-20T17:49:12.067Z,8.45
2023-03-20T17:54:16.254Z,8.40
2023-03-20T17:59:20.429Z,8.38
2023-03-20T18:04:24.584Z,8.34
2023-03-20T18:09:28.720Z,8.31
2023-03-20T18:14:32.882Z,8.31
2023-03-20T18:19:37.047Z,8.33
2023-03-20T18:24:44.118Z,8.35
2023-03-20T18:29:45.384Z,8.41
2023-03-20T18:34:49.548Z,8.50
2023-03-20T18:39:53.727Z,8.54
2023-03-20T18:44:57.861Z,8.55
2023-03-20T18:50:02.060Z,8.57
2023-03-20T18:55:06.215Z,8.64
2023-03-20T19:00:10.354Z,8.69
2023-03-20T19:05:14.547Z,8.74
2023-03-20T19:10:18.728Z,8.74
2023-03-20T19:15:20.969Z,8.75
2023-03-20T19:20:25.141Z,8.76
2023-03-20T19:25:27.376Z,8.77
2023-03-20T19:30:31.561Z,8.79
2023-03-20T19:36:01.359Z,8.78
2023-03-20T19:40:42.859Z,8.81
2023-03-20T19:45:44.059Z,8.84
2023-03-20T19:50:48.221Z,8.90
2023-03-20T19:55:52.552Z,8.92
2023-03-20T20:01:11.115Z,8.93
2023-03-20T20:06:00.668Z,8.95
2023-03-20T20:11:04.868Z,8.93
2023-03-20T20:16:09.048Z,8.92
2023-03-20T20:22:06.339Z,8.92
2023-03-20T20:26:15.839Z,8.93
2023-03-20T20:31:19.636Z,8.95
2023-03-20T20:37:32.268Z,8.96
2023-03-20T20:41:27.912Z,8.98
2023-03-20T20:46:32.206Z,9.01
2023-03-20T20:51:36.216Z,9.04
2023-03-20T20:56:40.394Z,9.05
2023-03-20T21:01:44.664Z,9.05
2023-03-20T21:07:08.716Z,9.06
2023-03-20T21:11:51.004Z,9.07
2023-03-20T21:16:55.192Z,9.10
2023-03-20T21:21:57.450Z,9.17
2023-03-20T21:27:01.602Z,9.22
2023-03-20T21:32:05.848Z,9.31
2023-03-20T21:42:14.059Z,9.35
2023-03-20T21:48:04.278Z,9.39
2023-03-20T21:53:05.944Z,9.40
2023-03-20T21:58:10.504Z,9.42
2023-03-20T22:02:32.639Z,9.44
2023-03-20T22:08:27.897Z,9.43
2023-03-20T22:13:44.549Z,9.39
2023-03-20T22:18:38.385Z,9.38
2023-03-20T22:23:50.766Z,9.37
2023-03-20T22:28:33.264Z,9.34
2023-03-20T22:34:09.677Z,9.34
2023-03-20T22:38:55.011Z,9.32
2023-03-20T22:43:59.892Z,9.31
2023-03-20T22:48:08.189Z,9.33
2023-03-20T22:53:12.360Z,9.32
2023-03-20T22:58:16.489Z,9.34
2023-03-20T23:03:33.752Z,9.34
2023-03-20T23:08:23.076Z,9.36
2023-03-20T23:13:27.102Z,9.39
2023-03-20T23:18:29.397Z,9.37
2023-03-20T23:23:33.523Z,9.37
2023-03-20T23:28:37.667Z,9.38
2023-03-20T23:33:41.821Z,9.36
2023-03-20T23:38:45.989Z,9.36
2023-03-20T23:43:52.528Z,9.35
2023-03-20T23:48:54.314Z,9.35
2023-03-20T23:53:58.494Z,9.35
2023-03-20T23:59:11.418Z,9.32
